Time;durP1;ratioP1;P1;durP2;ratioP2;P2;SDS_P1;SDS_P2;PMS_P1;PMS_P2;Temp;Humidity;BMP_temperature;BMP_pressure;BME280_temperature;BME280_humidity;BME280_pressure;Samples;Min_cycle;Max_cycle;Signal;HPM_P1;HPM_P2
2022/01/30 00:00:31;;;;;;;11.70;5.90;;;;;;;-2.24;53.25;100785.02;107461;1246;70183;-81
2022/01/30 00:03:04;;;;;;;9.90;5.60;;;;;;;-2.20;53.13;100781.19;107479;1246;73315;-81
2022/01/30 00:05:34;;;;;;;9.90;5.20;;;;;;;-2.18;52.80;100775.52;108213;1246;59579;-77
2022/01/30 00:08:05;;;;;;;12.00;5.50;;;;;;;-2.15;52.56;100769.83;108391;1247;60158;-81
2022/01/30 00:10:40;;;;;;;8.90;5.00;;;;;;;-2.12;53.78;100766.55;108615;1245;73627;-83
2022/01/30 00:13:13;;;;;;;8.80;4.50;;;;;;;-2.09;52.78;100750.61;107802;1246;70397;-82
2022/01/30 00:15:47;;;;;;;7.80;5.10;;;;;;;-2.07;52.46;100746.48;107609;1245;69785;-82
2022/01/30 00:22:12;;;;;;;;;;;;;;;;;;;;;
2022/01/30 00:24:25;;;;;;;10.40;5.10;;;;;;;-2.09;53.03;100726.38;107605;1246;60699;-80
2022/01/30 00:26:56;;;;;;;10.60;4.70;;;;;;;-2.07;52.54;100719.35;107718;1247;75559;-80
2022/01/30 00:29:25;;;;;;;10.10;5.30;;;;;;;-2.05;53.37;100713.14;107635;1246;71874;-78
2022/01/30 00:31:54;;;;;;;9.00;4.70;;;;;;;-2.04;52.70;100708.86;107887;1246;70920;-80
2022/01/30 00:34:43;;;;;;;6.80;4.50;;;;;;;-2.05;53.17;100705.81;108805;1245;75200;-81
2022/01/30 00:37:15;;;;;;;8.30;4.80;;;;;;;-2.08;53.10;100697.02;107843;1247;62121;-80
2022/01/30 00:39:43;;;;;;;9.20;4.80;;;;;;;-2.09;53.19;100689.19;107625;1246;61671;-80
2022/01/30 00:42:13;;;;;;;8.80;5.20;;;;;;;-2.12;53.07;100681.73;107781;1246;72935;-81
2022/01/30 00:44:42;;;;;;;7.70;4.70;;;;;;;-2.15;53.92;100670.34;107632;1246;70376;-80
2022/01/30 00:47:13;;;;;;;9.00;5.20;;;;;;;-2.13;53.63;100662.82;107106;1246;578699;-81
2022/01/30 00:49:42;;;;;;;11.50;4.80;;;;;;;-2.11;53.37;100660.89;107510;1247;73067;-83
2022/01/30 00:52:11;;;;;;;9.10;4.60;;;;;;;-2.08;52.79;100655.02;107388;1246;60500;-77
2022/01/30 00:54:41;;;;;;;10.40;5.00;;;;;;;-2.03;52.38;100647.91;107105;1249;62961;-79
2022/01/30 00:57:10;;;;;;;9.30;4.40;;;;;;;-1.99;52.42;100633.14;107564;1246;72330;-77
2022/01/30 00:59:39;;;;;;;9.40;4.70;;;;;;;-1.94;52.29;100619.89;107535;1247;71757;-78
2022/01/30 01:02:08;;;;;;;8.90;4.20;;;;;;;-1.89;51.90;100609.37;107386;1247;71498;-81
2022/01/30 01:04:39;;;;;;;8.40;4.60;;;;;;;-1.84;52.57;100598.16;107372;1247;71754;-77
2022/01/30 01:07:14;;;;;;;7.20;4.30;;;;;;;-1.78;52.26;100595.96;107529;1246;59665;-81
2022/01/30 01:09:52;;;;;;;8.40;4.80;;;;;;;-1.73;52.28;100588.02;107613;1247;60551;-81
2022/01/30 01:23:52;;;;;;;6.70;4.00;;;;;;;-1.54;51.28;100570.13;107674;1246;62313;-78
2022/01/30 01:26:24;;;;;;;8.30;4.60;;;;;;;-1.46;51.04;100573.35;107634;1247;60110;-81
2022/01/30 01:28:54;;;;;;;7.30;3.90;;;;;;;-1.45;51.42;100566.31;107624;1246;74447;-82
2022/01/30 01:31:24;;;;;;;9.60;4.60;;;;;;;-1.40;51.14;100562.27;107675;1246;72940;-82
2022/01/30 01:36:26;;;;;;;7.00;4.40;;;;;;;-1.35;51.18;100559.05;107649;1246;73998;-82
2022/01/30 01:38:56;;;;;;;6.90;3.80;;;;;;;-1.34;50.21;100555.77;108564;1246;60343;-82
2022/01/30 01:41:27;;;;;;;8.60;3.70;;;;;;;-1.29;50.26;100552.76;108548;1246;58925;-84
2022/01/30 01:43:57;;;;;;;7.50;4.10;;;;;;;-1.20;49.14;100545.34;107837;1246;72555;-81
2022/01/30 01:46:30;;;;;;;6.90;3.50;;;;;;;-1.14;49.09;100541.57;107514;1246;72283;-82
2022/01/30 01:49:00;;;;;;;6.10;3.60;;;;;;;-1.11;49.13;100536.70;107708;1246;70980;-81
2022/01/30 01:51:31;;;;;;;9.20;4.10;;;;;;;-1.08;49.63;100532.70;107586;1246;72341;-80
2022/01/30 01:54:00;;;;;;;8.60;4.30;;;;;;;-1.07;49.47;100522.44;107610;1247;61846;-84
2022/01/30 01:56:30;;;;;;;8.70;3.90;;;;;;;-1.05;49.66;100522.20;107751;1245;60692;-83
2022/01/30 01:59:06;;;;;;;6.40;3.50;;;;;;;-1.02;49.54;100516.48;107691;1246;73668;-84
2022/01/30 02:01:54;;;;;;;5.10;2.70;;;;;;;-1.00;49.39;100514.72;107704;1246;71815;-82
2022/01/30 02:04:23;;;;;;;6.40;3.40;;;;;;;-0.94;49.52;100507.88;107738;1246;66879;-78
2022/01/30 02:07:38;;;;;;;7.70;4.30;;;;;;;-0.89;49.33;100505.68;107560;1246;72294;-80
2022/01/30 02:10:04;;;;;;;8.00;3.40;;;;;;;-0.79;48.75;100497.55;107621;1247;59589;-78
2022/01/30 02:12:43;;;;;;;6.70;3.70;;;;;;;-0.76;48.79;100491.98;107726;1245;60053;-79
2022/01/30 02:23:54;;;;;;;7.60;3.10;;;;;;;-0.71;49.95;100493.70;107581;1246;72846;-80
2022/01/30 02:24:00;;;;;;;7.20;3.80;;;;;;;-0.57;49.97;100485.42;107767;1246;72252;-79
2022/01/30 02:26:43;;;;;;;9.40;3.70;;;;;;;-0.59;49.30;100477.44;107722;1247;60533;-79
2022/01/30 02:29:13;;;;;;;6.60;3.50;;;;;;;-0.56;50.09;100469.33;107555;1246;61141;-78
2022/01/30 02:31:42;;;;;;;8.80;3.70;;;;;;;-0.56;49.97;100455.45;107373;1246;75113;-80
2022/01/30 02:34:12;;;;;;;8.20;3.50;;;;;;;-0.55;49.93;100452.15;107413;1247;71872;-79
2022/01/30 02:36:51;;;;;;;6.20;3.80;;;;;;;-0.52;50.70;100454.45;107561;1247;71532;-80
2022/01/30 02:39:20;;;;;;;6.70;3.40;;;;;;;-0.53;49.07;100455.02;107471;1247;74517;-80
2022/01/30 02:41:49;;;;;;;8.80;3.60;;;;;;;-0.51;49.35;100450.85;107664;1247;59584;-78
2022/01/30 02:46:59;;;;;;;7.20;3.40;;;;;;;-0.50;49.83;100447.22;107523;1246;74057;-79
2022/01/30 02:49:43;;;;;;;7.80;3.70;;;;;;;-0.46;50.47;100439.08;107359;1246;71470;-77
2022/01/30 02:52:14;;;;;;;5.80;2.90;;;;;;;-0.43;50.86;100429.90;107423;1245;71413;-76
2022/01/30 02:54:43;;;;;;;6.90;2.90;;;;;;;-0.38;50.71;100419.14;108264;1244;72731;-78
2022/01/30 02:57:12;;;;;;;4.80;2.20;;;;;;;-0.32;49.86;100414.84;107512;1247;60044;-76
2022/01/30 02:59:41;;;;;;;5.80;2.90;;;;;;;-0.17;49.78;100408.36;108345;1246;60856;-77
2022/01/30 03:02:11;;;;;;;6.30;2.70;;;;;;;-0.10;50.01;100410.52;109582;1243;74114;-76
2022/01/30 03:04:40;;;;;;;6.20;2.90;;;;;;;-0.06;50.43;100409.35;108689;1246;70230;-78
2022/01/30 03:07:10;;;;;;;5.80;2.80;;;;;;;-0.01;50.10;100403.02;107921;1246;67182;-80
2022/01/30 03:09:44;;;;;;;5.50;2.80;;;;;;;0.08;50.18;100405.82;107829;1246;72243;-81
2022/01/30 03:12:13;;;;;;;4.40;2.30;;;;;;;0.15;51.73;100403.67;107663;1247;59103;-80
2022/01/30 03:14:42;;;;;;;2.20;1.50;;;;;;;0.26;55.17;100401.77;107698;1246;60680;-79
2022/01/30 03:17:12;;;;;;;3.40;1.50;;;;;;;0.27;58.41;100397.11;107587;1246;73904;-76
2022/01/30 03:19:41;;;;;;;2.10;1.50;;;;;;;0.18;61.96;100400.31;107574;1246;72913;-79
2022/01/30 03:22:09;;;;;;;5.10;2.30;;;;;;;0.08;65.96;100397.25;107403;1246;70138;-80
2022/01/30 03:24:39;;;;;;;3.50;2.30;;;;;;;-0.15;66.81;100387.42;107675;1245;74100;-80
2022/01/30 03:27:18;;;;;;;2.90;1.80;;;;;;;-0.22;69.55;100372.23;107676;1244;59604;-80
2022/01/30 03:30:03;;;;;;;2.70;1.50;;;;;;;-0.34;70.95;100367.14;107711;1245;61283;-78
2022/01/30 03:32:52;;;;;;;4.10;2.20;;;;;;;-0.54;71.45;100355.67;107582;1245;74741;-81
2022/01/30 03:35:22;;;;;;;3.60;2.50;;;;;;;-0.60;71.39;100345.06;107738;1246;70370;-81
2022/01/30 03:37:51;;;;;;;9.10;2.70;;;;;;;-0.64;71.86;100334.79;107616;1246;67762;-82
2022/01/30 03:40:21;;;;;;;5.00;2.90;;;;;;;-0.73;72.26;100324.47;107539;1246;71995;-80
2022/01/30 03:42:50;;;;;;;4.10;2.50;;;;;;;-0.82;76.52;100313.46;107673;1247;59663;-81
2022/01/30 03:45:19;;;;;;;3.90;2.60;;;;;;;-0.83;74.88;100306.31;107504;1247;59678;-81
2022/01/30 03:47:48;;;;;;;3.90;2.40;;;;;;;-0.77;72.75;100299.45;107517;1246;73717;-82
2022/01/30 03:50:23;;;;;;;6.20;2.90;;;;;;;-0.77;74.79;100289.21;107443;1246;72886;-82
2022/01/30 03:52:54;;;;;;;5.60;2.90;;;;;;;-0.72;74.01;100284.27;107323;1247;69375;-81
2022/01/30 03:55:24;;;;;;;4.90;2.40;;;;;;;-0.70;72.94;100289.13;107535;1246;71191;-81
2022/01/30 03:57:53;;;;;;;5.40;3.10;;;;;;;-0.69;74.00;100278.48;107470;1247;60529;-81
2022/01/30 04:00:23;;;;;;;6.30;3.20;;;;;;;-0.71;75.87;100279.06;107331;1246;62164;-82
2022/01/30 04:02:58;;;;;;;7.50;3.70;;;;;;;-0.74;76.78;100279.16;107637;1244;73176;-83
2022/01/30 04:05:28;;;;;;;4.70;3.40;;;;;;;-0.68;76.48;100276.59;107694;1246;69577;-83
2022/01/30 04:08:02;;;;;;;4.60;2.90;;;;;;;-0.63;74.78;100268.89;108680;1246;69241;-81
2022/01/30 04:10:42;;;;;;;6.20;3.40;;;;;;;-0.59;74.35;100263.80;107641;1246;74505;-82
2022/01/30 04:13:28;;;;;;;5.20;3.20;;;;;;;-0.72;76.51;100254.47;107497;1246;61238;-82
2022/01/30 04:16:21;;;;;;;7.70;3.50;;;;;;;-0.83;76.68;100246.28;107512;1245;61655;-79
2022/01/30 04:19:05;;;;;;;4.50;2.60;;;;;;;-0.82;77.05;100244.38;107350;1247;73001;-81
2022/01/30 04:21:53;;;;;;;6.30;3.60;;;;;;;-0.77;78.04;100230.71;107682;1246;71729;-81
2022/01/30 04:24:34;;;;;;;6.40;3.50;;;;;;;-0.71;77.27;100231.02;107548;1246;67948;-81
2022/01/30 04:28:02;;;;;;;7.90;3.10;;;;;;;-0.80;78.03;100208.57;107189;1251;72356;-81
2022/01/30 04:30:53;;;;;;;7.80;3.00;;;;;;;-0.84;79.39;100198.45;106993;1253;60942;-82
2022/01/30 04:33:28;;;;;;;6.70;3.20;;;;;;;-0.85;79.59;100191.83;107502;1246;61739;-83
2022/01/30 04:36:26;;;;;;;7.30;3.40;;;;;;;-0.80;79.33;100192.67;107453;1247;73948;-79
2022/01/30 04:42:04;;;;;;;7.80;3.80;;;;;;;-0.73;79.23;100168.48;107650;1246;70559;-79
2022/01/30 05:02:13;;;;;;;7.40;4.00;;;;;;;-0.60;79.19;100139.47;107664;1246;69877;-81
2022/01/30 05:05:36;;;;;;;5.60;3.60;;;;;;;-0.53;77.95;100146.42;107656;1246;71446;-81
2022/01/30 05:08:17;;;;;;;5.40;3.60;;;;;;;-0.49;77.57;100134.98;107457;1247;59561;-80
2022/01/30 05:11:06;;;;;;;5.70;3.40;;;;;;;-0.46;77.44;100125.96;107585;1246;61272;-83
2022/01/30 05:14:35;;;;;;;5.30;3.60;;;;;;;-0.48;78.54;100123.81;106991;1252;73971;-82
2022/01/30 05:17:24;;;;;;;5.20;3.20;;;;;;;-0.46;78.48;100119.83;107517;1246;72607;-81
2022/01/30 05:20:05;;;;;;;6.30;3.20;;;;;;;-0.46;78.95;100113.50;107631;1246;69664;-80
2022/01/30 05:22:51;;;;;;;4.80;3.00;;;;;;;-0.37;76.75;100108.55;107626;1246;73958;-81
2022/01/30 05:26:08;;;;;;;6.70;2.90;;;;;;;-0.39;76.77;100111.02;107617;1245;61813;-81
2022/01/30 05:28:44;;;;;;;4.50;2.90;;;;;;;-0.34;76.39;100107.23;107557;1246;61198;-81
2022/01/30 05:31:25;;;;;;;5.20;3.00;;;;;;;-0.30;76.94;100112.37;107605;1247;73287;-81
2022/01/30 05:34:55;;;;;;;6.70;3.40;;;;;;;-0.27;77.71;100108.52;107556;1246;72125;-79
2022/01/30 05:38:18;;;;;;;6.00;2.80;;;;;;;-0.25;77.34;100100.21;107303;1246;71400;-81
2022/01/30 05:41:23;;;;;;;5.10;3.10;;;;;;;-0.17;75.98;100102.14;107650;1245;72670;-78
2022/01/30 05:44:15;;;;;;;3.50;2.00;;;;;;;-0.17;76.47;100102.84;107579;1246;60497;-78
2022/01/30 05:47:43;;;;;;;4.00;2.40;;;;;;;-0.10;76.05;100090.91;107863;1246;59528;-81
2022/01/30 05:50:34;;;;;;;6.70;3.20;;;;;;;-0.12;76.67;100089.83;108652;1246;72799;-79
2022/01/30 05:53:06;;;;;;;;;;;;;;;-0.12;76.48;100089.30;108745;1246;69555;-79
2022/01/30 05:55:51;;;;;;;5.20;3.10;;;;;;;-0.11;76.46;100090.81;108514;1245;70949;-79
2022/01/30 05:58:20;;;;;;;5.30;2.90;;;;;;;-0.09;76.49;100094.63;108339;1247;75184;-78
2022/01/30 06:01:08;;;;;;;7.10;4.30;;;;;;;-0.06;76.25;100090.08;107692;1246;61953;-80
2022/01/30 06:03:37;;;;;;;6.10;3.80;;;;;;;-0.14;76.87;100088.86;107555;1247;59614;-78
2022/01/30 06:06:08;;;;;;;6.00;4.00;;;;;;;-0.07;76.08;100085.70;107717;1246;72532;-76
2022/01/30 06:08:43;;;;;;;5.10;3.30;;;;;;;-0.12;76.91;100085.36;107659;1246;72219;-77
2022/01/30 06:11:13;;;;;;;6.10;3.50;;;;;;;-0.08;76.22;100083.84;107563;1246;68317;-75
2022/01/30 06:13:42;;;;;;;6.00;3.50;;;;;;;-0.04;75.79;100084.71;107531;1247;72438;-76
2022/01/30 06:16:11;;;;;;;7.20;3.80;;;;;;;0.01;75.27;100083.98;107423;1247;59456;-77
2022/01/30 06:18:40;;;;;;;7.20;3.20;;;;;;;0.00;75.83;100087.80;107537;1246;60107;-75
2022/01/30 06:21:10;;;;;;;11.20;4.70;;;;;;;0.07;75.00;100087.55;107705;1246;73793;-72
2022/01/30 06:24:26;;;;;;;13.00;4.00;;;;;;;0.06;75.50;100078.32;107512;1246;70484;-75
2022/01/30 06:27:07;;;;;;;8.60;4.20;;;;;;;0.12;75.37;100073.45;107691;1245;68251;-74
2022/01/30 06:30:21;;;;;;;6.50;3.90;;;;;;;0.15;75.15;100073.33;107498;1246;73577;-74
2022/01/30 06:33:34;;;;;;;9.00;4.30;;;;;;;0.16;75.61;100066.12;107560;1246;59961;-77
2022/01/30 06:36:22;;;;;;;8.60;4.30;;;;;;;0.21;75.39;100056.13;107703;1246;60488;-78
2022/01/30 06:39:43;;;;;;;7.00;4.10;;;;;;;0.22;75.35;100047.52;107479;1245;73947;-76
2022/01/30 06:42:23;;;;;;;10.10;4.20;;;;;;;0.33;74.98;100042.83;107360;1246;73237;-75
2022/01/30 06:45:10;;;;;;;9.70;4.80;;;;;;;0.40;74.34;100041.17;107583;1246;69667;-76
2022/01/30 06:47:57;;;;;;;13.10;5.20;;;;;;;0.39;74.97;100033.70;107497;1246;74793;-78
2022/01/30 06:51:17;;;;;;;6.30;4.50;;;;;;;0.43;74.45;100037.30;107177;1247;61386;-77
2022/01/30 06:54:04;;;;;;;7.20;4.10;;;;;;;0.50;73.87;100038.35;107483;1246;59672;-79
2022/01/30 06:56:52;;;;;;;7.20;4.50;;;;;;;0.50;74.05;100038.68;107518;1246;73663;-76
2022/01/30 07:00:06;;;;;;;10.00;5.20;;;;;;;0.45;74.45;100021.59;107320;1246;72032;-76
2022/01/30 07:03:16;;;;;;;5.70;3.30;;;;;;;0.58;74.04;100011.63;107435;1246;68254;-77
2022/01/30 07:05:52;;;;;;;6.60;3.70;;;;;;;0.67;73.93;100006.78;107319;1248;73415;-77
2022/01/30 07:08:29;;;;;;;8.00;4.20;;;;;;;0.72;73.30;100001.27;107417;1246;59652;-79
2022/01/30 07:10:58;;;;;;;7.40;4.40;;;;;;;0.75;73.00;99998.55;107396;1246;59561;-78
2022/01/30 07:13:27;;;;;;;8.50;4.90;;;;;;;0.84;73.18;99998.70;107512;1246;75397;-75
2022/01/30 07:15:56;;;;;;;8.50;4.40;;;;;;;0.95;72.93;99991.02;107471;1245;71939;-76
2022/01/30 07:18:25;;;;;;;13.90;5.60;;;;;;;0.96;72.74;99981.89;107425;1245;71229;-76
2022/01/30 07:20:54;;;;;;;13.20;5.50;;;;;;;0.96;72.91;99976.02;107576;1246;72350;-79
2022/01/30 07:23:23;;;;;;;7.50;4.40;;;;;;;0.95;72.91;99979.15;107402;1246;60006;-75
2022/01/30 07:25:57;;;;;;;7.80;5.20;;;;;;;1.05;72.79;99982.34;107541;1244;58932;-76
2022/01/30 07:28:26;;;;;;;10.30;5.60;;;;;;;1.05;72.74;99989.52;107383;1246;72757;-74
2022/01/30 07:30:56;;;;;;;10.70;5.00;;;;;;;1.11;72.37;99975.72;107478;1246;70707;-76
2022/01/30 07:33:26;;;;;;;9.90;6.10;;;;;;;1.17;72.09;99978.73;107551;1246;70617;-78
2022/01/30 07:35:56;;;;;;;8.90;5.40;;;;;;;1.18;72.27;99982.58;107509;1246;74157;-79
2022/01/30 07:38:27;;;;;;;11.00;5.90;;;;;;;1.28;71.38;99972.71;107420;1246;60517;-75
2022/01/30 07:40:56;;;;;;;11.50;7.20;;;;;;;1.35;70.95;99961.42;107347;1246;59571;-78
2022/01/30 07:43:25;;;;;;;12.70;7.70;;;;;;;1.35;70.95;99957.13;107483;1247;73166;-78
2022/01/30 07:46:04;;;;;;;11.90;7.60;;;;;;;1.43;71.37;99950.26;107456;1246;73055;-78
2022/01/30 07:48:34;;;;;;;11.10;6.50;;;;;;;1.46;71.31;99954.56;107456;1246;68739;-78
2022/01/30 07:51:03;;;;;;;10.00;6.30;;;;;;;1.41;71.55;99945.89;107537;1246;73075;-77
2022/01/30 07:53:32;;;;;;;7.90;4.80;;;;;;;1.39;71.88;99947.70;107702;1246;60030;-81
2022/01/30 07:56:01;;;;;;;6.60;3.40;;;;;;;1.41;70.35;99951.21;107618;1246;59540;-80
2022/01/30 07:58:32;;;;;;;9.10;4.10;;;;;;;1.39;69.23;99942.17;107566;1246;73747;-81
2022/01/30 08:01:02;;;;;;;6.70;4.10;;;;;;;1.33;69.64;99945.05;107665;1246;72880;-89
2022/01/30 08:03:31;;;;;;;7.70;4.50;;;;;;;1.33;69.38;99945.05;107950;1246;69379;-89
2022/01/30 08:06:00;;;;;;;8.50;4.80;;;;;;;1.44;69.66;99946.77;107931;1246;72522;-91
2022/01/30 08:08:29;;;;;;;7.70;4.10;;;;;;;1.59;69.34;99939.34;107900;1246;59032;-77
2022/01/30 08:10:58;;;;;;;8.50;3.90;;;;;;;1.75;69.09;99931.05;107671;1249;58948;-90
2022/01/30 08:13:27;;;;;;;8.60;3.70;;;;;;;2.00;68.84;99931.35;107755;1246;72653;-77
2022/01/30 08:15:56;;;;;;;6.00;3.60;;;;;;;2.30;67.82;99936.75;107675;1245;72883;-79
2022/01/30 08:18:26;;;;;;;6.30;4.10;;;;;;;2.60;68.04;99927.27;107759;1246;68321;-81
2022/01/30 08:20:55;;;;;;;8.30;4.10;;;;;;;2.97;68.85;99920.70;107807;1246;74347;-79
2022/01/30 08:23:27;;;;;;;5.90;3.30;;;;;;;3.26;68.68;99917.75;107717;1246;60915;-81
2022/01/30 08:25:56;;;;;;;5.90;3.20;;;;;;;3.56;64.12;99912.48;107662;1246;59526;-77
2022/01/30 08:28:25;;;;;;;4.50;2.50;;;;;;;3.72;62.72;99919.33;107636;1246;73265;-76
2022/01/30 08:30:54;;;;;;;4.10;2.60;;;;;;;3.85;62.56;99928.05;107704;1246;71548;-76
2022/01/30 08:33:23;;;;;;;5.30;2.70;;;;;;;3.94;61.45;99937.19;107691;1246;68996;-80
2022/01/30 08:35:53;;;;;;;4.00;2.40;;;;;;;4.04;61.46;99936.81;107589;1246;70284;-79
2022/01/30 08:38:22;;;;;;;4.50;2.20;;;;;;;4.08;61.51;99929.14;107654;1246;60572;-79
2022/01/30 08:40:51;;;;;;;4.00;2.50;;;;;;;4.16;61.05;99922.33;107828;1246;60259;-76
2022/01/30 08:43:21;;;;;;;2.50;1.90;;;;;;;4.25;59.51;99915.38;107981;1246;73405;-77
2022/01/30 08:45:52;;;;;;;3.70;2.30;;;;;;;4.30;57.83;99922.50;108438;1246;72667;-79
2022/01/30 08:48:21;;;;;;;4.00;2.10;;;;;;;4.27;58.44;99919.79;107888;1246;70031;-77
2022/01/30 08:50:51;;;;;;;4.90;2.10;;;;;;;4.29;56.60;99920.02;107678;1246;71833;-75
2022/01/30 08:53:20;;;;;;;3.00;2.00;;;;;;;4.28;56.60;99925.06;107679;1246;59707;-79
2022/01/30 08:55:49;;;;;;;4.50;1.50;;;;;;;4.35;55.05;99920.14;107457;1247;60863;-78
2022/01/30 08:58:18;;;;;;;4.70;1.90;;;;;;;4.46;55.13;99918.10;107924;1246;72532;-76
2022/01/30 09:00:47;;;;;;;5.20;3.10;;;;;;;4.53;55.75;99903.21;107823;1246;68908;-73
2022/01/30 09:03:16;;;;;;;8.70;4.40;;;;;;;4.62;55.26;99913.04;107877;1246;70842;-77
2022/01/30 09:05:46;;;;;;;8.20;4.00;;;;;;;4.65;56.16;99912.88;107385;1246;73826;-76
2022/01/30 09:08:15;;;;;;;8.60;4.90;;;;;;;4.77;56.27;99911.57;107361;1247;59645;-75
2022/01/30 09:10:44;;;;;;;6.60;3.70;;;;;;;4.78;55.68;99905.32;107457;1246;62796;-79
2022/01/30 09:13:13;;;;;;;7.00;4.00;;;;;;;4.83;54.30;99906.08;107739;1246;74877;-77
2022/01/30 09:15:43;;;;;;;7.20;3.50;;;;;;;4.73;54.00;99899.23;107739;1246;70393;-78
2022/01/30 09:18:13;;;;;;;5.40;3.20;;;;;;;4.87;54.79;99901.18;107726;1246;69765;-79
2022/01/30 09:20:43;;;;;;;6.00;3.40;;;;;;;4.93;54.88;99893.38;107816;1246;74722;-76
2022/01/30 09:23:13;;;;;;;4.50;2.20;;;;;;;5.02;53.85;99887.09;107561;1246;61801;-76
2022/01/30 09:25:47;;;;;;;3.20;1.90;;;;;;;5.18;52.77;99889.54;107562;1246;61830;-74
2022/01/30 09:28:16;;;;;;;1.70;1.10;;;;;;;5.37;51.95;99888.02;107681;1245;71775;-77
2022/01/30 09:30:46;;;;;;;1.80;1.20;;;;;;;5.52;50.09;99881.53;107681;1246;72204;-79
2022/01/30 09:33:16;;;;;;;3.60;1.90;;;;;;;5.54;49.25;99873.43;107468;1247;71999;-82
2022/01/30 09:35:44;;;;;;;3.20;2.00;;;;;;;5.49;50.63;99876.52;107650;1246;75239;-84
2022/01/30 09:38:13;;;;;;;4.30;2.30;;;;;;;5.51;51.58;99872.62;107623;1246;61370;-84
2022/01/30 09:40:45;;;;;;;2.80;1.80;;;;;;;5.57;50.88;99869.48;107542;1246;62547;-82
2022/01/30 09:43:15;;;;;;;2.50;1.50;;;;;;;5.65;49.18;99859.46;107322;1248;72482;-80
2022/01/30 09:45:45;;;;;;;4.70;1.30;;;;;;;5.66;48.99;99865.10;107468;1247;70475;-78
2022/01/30 09:48:16;;;;;;;3.50;1.60;;;;;;;5.67;48.82;99856.88;107597;1246;68820;-78
2022/01/30 09:50:47;;;;;;;2.70;1.50;;;;;;;5.68;48.55;99839.86;107278;1247;72740;-80
2022/01/30 09:53:19;;;;;;;1.80;1.20;;;;;;;5.68;49.49;99830.72;107423;1245;59621;-81
2022/01/30 09:55:50;;;;;;;3.20;1.50;;;;;;;5.74;49.71;99837.77;107411;1246;59286;-81
2022/01/30 09:58:24;;;;;;;3.20;1.70;;;;;;;5.77;49.55;99844.27;107511;1246;72489;-85
2022/01/30 10:00:58;;;;;;;4.80;1.80;;;;;;;5.84;48.29;99842.80;107419;1246;71852;-82
2022/01/30 10:03:27;;;;;;;2.40;1.60;;;;;;;5.84;48.54;99840.05;107360;1246;70947;-83
2022/01/30 10:06:18;;;;;;;2.00;1.40;;;;;;;5.79;48.75;99823.12;107385;1246;71509;-83
2022/01/30 10:08:53;;;;;;;8.90;3.70;;;;;;;5.74;48.89;99798.88;107642;1246;59593;-83
2022/01/30 10:14:11;;;;;;;2.70;1.80;;;;;;;5.77;47.94;99799.59;107428;1247;75500;-81
2022/01/30 10:16:48;;;;;;;3.40;1.60;;;;;;;5.76;48.47;99793.91;107575;1246;70333;-79
2022/01/30 10:19:24;;;;;;;6.70;2.50;;;;;;;5.75;49.60;99799.67;107521;1246;70421;-83
2022/01/30 10:22:08;;;;;;;3.40;1.50;;;;;;;5.77;49.21;99799.55;107652;1246;73920;-87
2022/01/30 10:24:40;;;;;;;2.10;1.40;;;;;;;5.80;49.63;99797.42;107576;1246;60283;-78
2022/01/30 10:27:26;;;;;;;2.40;1.60;;;;;;;5.88;48.90;99800.69;107458;1247;59800;-83
2022/01/30 10:30:00;;;;;;;6.20;1.90;;;;;;;5.98;48.76;99803.20;107317;1246;74788;-89
2022/01/30 10:32:30;;;;;;;3.80;1.90;;;;;;;6.06;49.20;99804.71;107644;1245;73558;-90
2022/01/30 10:35:07;;;;;;;4.80;1.80;;;;;;;6.09;48.64;99802.77;107716;1245;70936;-87
2022/01/30 10:37:39;;;;;;;3.80;1.60;;;;;;;6.18;48.88;99804.23;107507;1245;74321;-88
2022/01/30 10:40:15;;;;;;;4.30;1.90;;;;;;;6.17;48.43;99807.76;107450;1246;58891;-85
2022/01/30 10:42:51;;;;;;;12.90;2.20;;;;;;;6.22;48.52;99805.55;107497;1246;58897;-85
2022/01/30 10:45:33;;;;;;;4.40;2.20;;;;;;;6.28;48.17;99802.84;107503;1246;73238;-86
2022/01/30 10:48:23;;;;;;;3.30;1.60;;;;;;;6.24;48.74;99798.68;107471;1246;69655;-84
2022/01/30 10:50:53;;;;;;;5.50;2.20;;;;;;;6.48;47.01;99806.88;107528;1246;70645;-86
2022/01/30 10:53:24;;;;;;;12.20;2.40;;;;;;;6.77;47.18;99806.69;107308;1246;73511;-84
2022/01/30 10:55:54;;;;;;;9.10;1.90;;;;;;;7.17;46.44;99800.52;108812;1246;60103;-82
2022/01/30 10:58:23;;;;;;;2.80;1.30;;;;;;;7.54;45.70;99793.99;107774;1246;61271;-82
2022/01/30 11:00:55;;;;;;;5.30;2.00;;;;;;;7.96;43.81;99782.23;108065;1246;73320;-85
2022/01/30 11:03:50;;;;;;;4.90;1.80;;;;;;;7.90;45.12;99776.59;107710;1246;70354;-82
2022/01/30 11:06:19;;;;;;;5.10;1.40;;;;;;;7.89;42.54;99776.80;107420;1246;70652;-87
2022/01/30 11:08:50;;;;;;;6.50;1.70;;;;;;;7.88;43.81;99771.31;107424;1246;73591;-85
2022/01/30 11:19:23;;;;;;;5.90;1.80;;;;;;;8.70;41.59;99755.67;107373;1246;72730;-84
2022/01/30 11:22:16;;;;;;;7.20;1.30;;;;;;;8.99;41.97;99751.05;107514;1245;67835;-84
2022/01/30 11:24:53;;;;;;;6.50;1.60;;;;;;;9.33;39.93;99744.91;107662;1246;74005;-83
2022/01/30 11:27:23;;;;;;;2.80;1.20;;;;;;;9.06;40.11;99742.82;107784;1246;61857;-82
2022/01/30 11:29:53;;;;;;;5.60;1.50;;;;;;;8.89;39.49;99742.98;108184;1246;60254;-83
2022/01/30 11:32:23;;;;;;;2.70;1.70;;;;;;;9.04;40.38;99739.73;108721;1246;73700;-84
2022/01/30 11:34:56;;;;;;;8.90;1.50;;;;;;;9.33;40.29;99734.72;108131;1246;70992;-84
2022/01/30 11:37:33;;;;;;;4.90;1.30;;;;;;;9.68;40.16;99724.63;107737;1246;68791;-84
2022/01/30 11:40:19;;;;;;;5.20;1.50;;;;;;;10.21;38.15;99726.59;107320;1247;73944;-84
2022/01/30 11:42:51;;;;;;;5.90;1.40;;;;;;;10.15;37.65;99719.29;107425;1246;61099;-86
2022/01/30 11:45:30;;;;;;;7.30;1.10;;;;;;;10.43;37.26;99706.64;107618;1246;60877;-85
2022/01/30 11:48:15;;;;;;;8.10;1.40;;;;;;;10.60;36.41;99698.45;107538;1246;74527;-86
2022/01/30 11:50:44;;;;;;;2.20;1.20;;;;;;;10.92;35.75;99697.17;107422;1246;71116;-87
2022/01/30 11:53:27;;;;;;;3.50;1.10;;;;;;;11.11;34.38;99696.33;107598;1246;69472;-87
2022/01/30 11:56:02;;;;;;;2.00;1.00;;;;;;;11.46;32.52;99693.84;107580;1247;73941;-85
2022/01/30 11:58:31;;;;;;;2.60;1.10;;;;;;;11.25;32.57;99687.46;107666;1247;62678;-87
2022/01/30 12:01:24;;;;;;;1.10;1.00;;;;;;;11.04;33.41;99688.59;108129;1246;61894;-84
2022/01/30 12:03:59;;;;;;;5.20;1.20;;;;;;;11.36;32.09;99689.20;108339;1246;72215;-84
2022/01/30 12:06:35;;;;;;;4.30;1.60;;;;;;;11.50;32.20;99680.96;107738;1246;70516;-83
2022/01/30 12:09:27;;;;;;;3.80;1.80;;;;;;;11.51;32.69;99673.89;107712;1246;69181;-84
2022/01/30 12:11:59;;;;;;;11.50;4.80;;;;;;;11.76;32.01;99664.38;107727;1246;73342;-87
2022/01/30 12:14:29;;;;;;;3.00;1.10;;;;;;;11.82;32.26;99659.25;107705;1246;62076;-83
2022/01/30 12:17:02;;;;;;;3.10;1.30;;;;;;;11.92;31.22;99650.86;107636;1246;60750;-83
2022/01/30 12:19:31;;;;;;;3.10;1.30;;;;;;;11.89;31.25;99644.89;107605;1246;73248;-86
2022/01/30 12:22:29;;;;;;;3.70;1.50;;;;;;;11.66;32.41;99649.11;107520;1246;71545;-86
2022/01/30 12:25:24;;;;;;;2.00;1.00;;;;;;;11.80;32.62;99646.42;107614;1246;72022;-85
2022/01/30 12:27:57;;;;;;;3.40;1.50;;;;;;;12.12;31.47;99642.65;107498;1246;74301;-84
2022/01/30 12:30:43;;;;;;;11.40;2.10;;;;;;;12.48;30.70;99640.27;107420;1246;61303;-85
2022/01/30 12:33:36;;;;;;;3.70;1.50;;;;;;;11.85;31.46;99645.95;107321;1246;61911;-84
2022/01/30 12:36:16;;;;;;;3.40;1.60;;;;;;;11.69;32.14;99648.80;107516;1246;73003;-86
2022/01/30 12:38:45;;;;;;;3.20;1.20;;;;;;;11.90;32.44;99642.36;107468;1246;72461;-84
2022/01/30 12:41:20;;;;;;;5.40;1.60;;;;;;;12.83;30.37;99635.73;107470;1246;70942;-84
2022/01/30 12:43:59;;;;;;;3.40;1.40;;;;;;;12.52;31.32;99633.56;107478;1246;74597;-86
2022/01/30 12:46:34;;;;;;;3.30;1.30;;;;;;;12.49;30.96;99637.77;107043;1245;656529;-84
2022/01/30 12:49:14;;;;;;;4.00;1.10;;;;;;;12.63;31.62;99630.42;107465;1246;60264;-83
2022/01/30 12:51:57;;;;;;;4.90;1.90;;;;;;;13.34;28.73;99635.55;107483;1247;71748;-78
2022/01/30 12:54:40;;;;;;;8.30;1.40;;;;;;;12.74;30.68;99642.41;107388;1246;72266;-84
2022/01/30 12:57:14;;;;;;;6.30;1.50;;;;;;;13.20;29.15;99642.88;107641;1245;71002;-78
2022/01/30 12:59:56;;;;;;;2.70;1.40;;;;;;;12.69;29.81;99641.02;107403;1246;74123;-77
2022/01/30 13:02:30;;;;;;;2.80;1.40;;;;;;;12.85;29.39;99636.91;107558;1246;60344;-85
2022/01/30 13:05:08;;;;;;;3.50;1.30;;;;;;;12.62;29.97;99639.94;107491;1246;59651;-84